sensor_id;sensor_type;location;lat;lon;timestamp;P1;durP1;ratioP1;P2;durP2;ratioP2
22064;SDS011;11197;53.110;8.468;2022-12-07T00:04:05;16.85;;;10.43;;
22064;SDS011;11197;53.110;8.468;2022-12-07T00:06:36;18.63;;;10.80;;
22064;SDS011;11197;53.110;8.468;2022-12-07T00:09:05;18.13;;;10.93;;
22064;SDS011;11197;53.110;8.468;2022-12-07T00:11:35;17.70;;;11.18;;
22064;SDS011;11197;53.110;8.468;2022-12-07T00:14:02;17.80;;;10.68;;
22064;SDS011;11197;53.110;8.468;2022-12-07T00:16:31;17.95;;;10.15;;
22064;SDS011;11197;53.110;8.468;2022-12-07T00:18:58;18.02;;;10.35;;
22064;SDS011;11197;53.110;8.468;2022-12-07T00:21:29;15.65;;;10.07;;
22064;SDS011;11197;53.110;8.468;2022-12-07T00:23:56;22.23;;;10.25;;
22064;SDS011;11197;53.110;8.468;2022-12-07T00:26:25;18.17;;;10.05;;
22064;SDS011;11197;53.110;8.468;2022-12-07T00:28:54;17.33;;;9.95;;
22064;SDS011;11197;53.110;8.468;2022-12-07T00:31:22;18.63;;;10.68;;
22064;SDS011;11197;53.110;8.468;2022-12-07T00:33:50;16.52;;;9.75;;
22064;SDS011;11197;53.110;8.468;2022-12-07T00:36:17;19.00;;;9.85;;
22064;SDS011;11197;53.110;8.468;2022-12-07T00:38:48;15.25;;;9.25;;
22064;SDS011;11197;53.110;8.468;2022-12-07T00:41:18;15.82;;;9.60;;
22064;SDS011;11197;53.110;8.468;2022-12-07T00:43:46;18.05;;;9.45;;
22064;SDS011;11197;53.110;8.468;2022-12-07T00:46:16;13.65;;;9.20;;
22064;SDS011;11197;53.110;8.468;2022-12-07T00:48:44;13.68;;;8.82;;
22064;SDS011;11197;53.110;8.468;2022-12-07T00:51:11;16.23;;;8.75;;
22064;SDS011;11197;53.110;8.468;2022-12-07T00:53:38;16.00;;;7.97;;
22064;SDS011;11197;53.110;8.468;2022-12-07T00:56:08;13.18;;;7.47;;
22064;SDS011;11197;53.110;8.468;2022-12-07T00:58:36;14.63;;;7.68;;
22064;SDS011;11197;53.110;8.468;2022-12-07T01:01:02;18.75;;;8.32;;
22064;SDS011;11197;53.110;8.468;2022-12-07T01:03:30;15.77;;;7.60;;
22064;SDS011;11197;53.110;8.468;2022-12-07T01:05:56;14.25;;;7.50;;
22064;SDS011;11197;53.110;8.468;2022-12-07T01:08:22;13.50;;;7.45;;
22064;SDS011;11197;53.110;8.468;2022-12-07T01:10:56;14.35;;;6.95;;
22064;SDS011;11197;53.110;8.468;2022-12-07T01:13:26;13.93;;;6.78;;
22064;SDS011;11197;53.110;8.468;2022-12-07T01:15:55;11.40;;;6.60;;
22064;SDS011;11197;53.110;8.468;2022-12-07T01:18:26;11.52;;;6.82;;
22064;SDS011;11197;53.110;8.468;2022-12-07T01:20:59;13.60;;;6.63;;
22064;SDS011;11197;53.110;8.468;2022-12-07T01:23:27;13.70;;;6.65;;
22064;SDS011;11197;53.110;8.468;2022-12-07T01:25:57;14.35;;;6.65;;
22064;SDS011;11197;53.110;8.468;2022-12-07T01:28:25;15.23;;;6.45;;
22064;SDS011;11197;53.110;8.468;2022-12-07T01:30:56;10.48;;;6.38;;
22064;SDS011;11197;53.110;8.468;2022-12-07T01:33:22;11.68;;;6.22;;
22064;SDS011;11197;53.110;8.468;2022-12-07T01:35:48;14.65;;;6.45;;
22064;SDS011;11197;53.110;8.468;2022-12-07T01:38:14;12.32;;;5.93;;
22064;SDS011;11197;53.110;8.468;2022-12-07T01:40:40;10.98;;;6.18;;
22064;SDS011;11197;53.110;8.468;2022-12-07T01:43:24;12.60;;;6.10;;
22064;SDS011;11197;53.110;8.468;2022-12-07T01:45:53;11.30;;;5.40;;
22064;SDS011;11197;53.110;8.468;2022-12-07T01:48:21;10.30;;;5.45;;
22064;SDS011;11197;53.110;8.468;2022-12-07T01:50:55;13.45;;;5.63;;
22064;SDS011;11197;53.110;8.468;2022-12-07T01:53:25;11.15;;;5.15;;
22064;SDS011;11197;53.110;8.468;2022-12-07T01:55:54;13.30;;;5.60;;
22064;SDS011;11197;53.110;8.468;2022-12-07T01:58:24;12.10;;;5.55;;
22064;SDS011;11197;53.110;8.468;2022-12-07T02:00:51;13.05;;;5.40;;
22064;SDS011;11197;53.110;8.468;2022-12-07T02:03:31;12.38;;;5.50;;
22064;SDS011;11197;53.110;8.468;2022-12-07T02:06:08;13.52;;;5.63;;
22064;SDS011;11197;53.110;8.468;2022-12-07T02:08:36;11.48;;;5.75;;
22064;SDS011;11197;53.110;8.468;2022-12-07T02:11:03;14.70;;;5.60;;
22064;SDS011;11197;53.110;8.468;2022-12-07T02:13:31;10.15;;;5.65;;
22064;SDS011;11197;53.110;8.468;2022-12-07T02:21:46;16.65;;;5.35;;
22064;SDS011;11197;53.110;8.468;2022-12-07T02:27:46;11.95;;;5.68;;
22064;SDS011;11197;53.110;8.468;2022-12-07T02:30:19;11.05;;;5.45;;
22064;SDS011;11197;53.110;8.468;2022-12-07T02:32:56;10.57;;;5.40;;
22064;SDS011;11197;53.110;8.468;2022-12-07T02:38:20;9.63;;;4.70;;
22064;SDS011;11197;53.110;8.468;2022-12-07T02:43:45;9.75;;;4.78;;
22064;SDS011;11197;53.110;8.468;2022-12-07T02:46:11;8.70;;;5.00;;
22064;SDS011;11197;53.110;8.468;2022-12-07T02:48:43;9.48;;;4.88;;
22064;SDS011;11197;53.110;8.468;2022-12-07T02:51:09;11.95;;;4.97;;
22064;SDS011;11197;53.110;8.468;2022-12-07T02:53:39;11.63;;;4.97;;
22064;SDS011;11197;53.110;8.468;2022-12-07T02:58:43;12.43;;;5.07;;
22064;SDS011;11197;53.110;8.468;2022-12-07T03:15:46;12.75;;;6.07;;
22064;SDS011;11197;53.110;8.468;2022-12-07T03:18:35;11.65;;;5.95;;
22064;SDS011;11197;53.110;8.468;2022-12-07T03:21:11;12.48;;;5.50;;
22064;SDS011;11197;53.110;8.468;2022-12-07T03:23:41;13.23;;;6.22;;
22064;SDS011;11197;53.110;8.468;2022-12-07T03:26:10;13.82;;;6.28;;
22064;SDS011;11197;53.110;8.468;2022-12-07T03:28:39;15.05;;;6.50;;
22064;SDS011;11197;53.110;8.468;2022-12-07T03:31:16;12.98;;;6.15;;
22064;SDS011;11197;53.110;8.468;2022-12-07T03:33:59;13.45;;;6.50;;
22064;SDS011;11197;53.110;8.468;2022-12-07T03:36:35;13.52;;;6.35;;
22064;SDS011;11197;53.110;8.468;2022-12-07T03:39:41;12.05;;;6.40;;
22064;SDS011;11197;53.110;8.468;2022-12-07T03:42:14;19.83;;;7.00;;
22064;SDS011;11197;53.110;8.468;2022-12-07T03:44:41;13.48;;;6.15;;
22064;SDS011;11197;53.110;8.468;2022-12-07T03:47:12;13.88;;;6.30;;
22064;SDS011;11197;53.110;8.468;2022-12-07T03:50:05;13.15;;;6.88;;
22064;SDS011;11197;53.110;8.468;2022-12-07T03:52:58;11.52;;;6.05;;
22064;SDS011;11197;53.110;8.468;2022-12-07T03:55:30;12.93;;;5.80;;
22064;SDS011;11197;53.110;8.468;2022-12-07T03:58:05;10.35;;;5.40;;
22064;SDS011;11197;53.110;8.468;2022-12-07T04:00:33;13.13;;;5.93;;
22064;SDS011;11197;53.110;8.468;2022-12-07T04:03:00;11.43;;;5.63;;
22064;SDS011;11197;53.110;8.468;2022-12-07T04:05:26;11.18;;;5.93;;
22064;SDS011;11197;53.110;8.468;2022-12-07T04:07:52;11.57;;;5.78;;
22064;SDS011;11197;53.110;8.468;2022-12-07T04:10:18;9.52;;;5.88;;
22064;SDS011;11197;53.110;8.468;2022-12-07T04:12:44;12.43;;;6.38;;
22064;SDS011;11197;53.110;8.468;2022-12-07T04:15:10;12.25;;;5.85;;
22064;SDS011;11197;53.110;8.468;2022-12-07T04:17:36;11.20;;;5.55;;
22064;SDS011;11197;53.110;8.468;2022-12-07T04:20:03;11.68;;;5.88;;
22064;SDS011;11197;53.110;8.468;2022-12-07T04:22:30;11.05;;;5.90;;
22064;SDS011;11197;53.110;8.468;2022-12-07T04:24:56;14.63;;;5.80;;
22064;SDS011;11197;53.110;8.468;2022-12-07T04:27:22;10.82;;;5.50;;
22064;SDS011;11197;53.110;8.468;2022-12-07T04:29:48;13.32;;;5.43;;
22064;SDS011;11197;53.110;8.468;2022-12-07T04:32:13;11.50;;;5.60;;
22064;SDS011;11197;53.110;8.468;2022-12-07T04:34:39;9.95;;;4.72;;
22064;SDS011;11197;53.110;8.468;2022-12-07T04:37:07;11.25;;;4.90;;
22064;SDS011;11197;53.110;8.468;2022-12-07T04:39:33;10.48;;;4.82;;
22064;SDS011;11197;53.110;8.468;2022-12-07T04:42:00;11.50;;;4.72;;
22064;SDS011;11197;53.110;8.468;2022-12-07T04:44:27;8.30;;;4.38;;
22064;SDS011;11197;53.110;8.468;2022-12-07T04:46:54;8.73;;;4.35;;
22064;SDS011;11197;53.110;8.468;2022-12-07T04:49:20;10.00;;;4.00;;
22064;SDS011;11197;53.110;8.468;2022-12-07T04:51:46;8.15;;;3.85;;
22064;SDS011;11197;53.110;8.468;2022-12-07T04:54:13;7.20;;;3.38;;
22064;SDS011;11197;53.110;8.468;2022-12-07T04:56:40;8.93;;;3.10;;
22064;SDS011;11197;53.110;8.468;2022-12-07T04:59:06;5.97;;;2.42;;
22064;SDS011;11197;53.110;8.468;2022-12-07T05:01:32;4.32;;;1.92;;
22064;SDS011;11197;53.110;8.468;2022-12-07T05:03:59;5.20;;;1.77;;
22064;SDS011;11197;53.110;8.468;2022-12-07T05:06:25;5.32;;;1.60;;
22064;SDS011;11197;53.110;8.468;2022-12-07T05:08:51;6.25;;;1.70;;
22064;SDS011;11197;53.110;8.468;2022-12-07T05:11:17;6.70;;;1.83;;
22064;SDS011;11197;53.110;8.468;2022-12-07T05:14:03;9.68;;;1.92;;
22064;SDS011;11197;53.110;8.468;2022-12-07T05:16:31;5.32;;;1.70;;
22064;SDS011;11197;53.110;8.468;2022-12-07T05:18:57;6.40;;;1.55;;
22064;SDS011;11197;53.110;8.468;2022-12-07T05:21:24;4.97;;;1.50;;
22064;SDS011;11197;53.110;8.468;2022-12-07T05:23:50;7.18;;;1.50;;
22064;SDS011;11197;53.110;8.468;2022-12-07T05:26:16;5.82;;;1.40;;
22064;SDS011;11197;53.110;8.468;2022-12-07T05:28:43;6.35;;;1.33;;
22064;SDS011;11197;53.110;8.468;2022-12-07T05:31:09;8.48;;;1.48;;
22064;SDS011;11197;53.110;8.468;2022-12-07T05:33:35;8.77;;;1.30;;
22064;SDS011;11197;53.110;8.468;2022-12-07T05:36:01;3.85;;;1.00;;
22064;SDS011;11197;53.110;8.468;2022-12-07T05:38:34;6.78;;;1.52;;
22064;SDS011;11197;53.110;8.468;2022-12-07T05:41:03;6.40;;;1.38;;
22064;SDS011;11197;53.110;8.468;2022-12-07T05:43:30;6.65;;;1.50;;
22064;SDS011;11197;53.110;8.468;2022-12-07T05:45:56;5.35;;;1.50;;
22064;SDS011;11197;53.110;8.468;2022-12-07T05:48:23;4.47;;;1.27;;
22064;SDS011;11197;53.110;8.468;2022-12-07T05:50:50;6.88;;;1.30;;
22064;SDS011;11197;53.110;8.468;2022-12-07T05:53:17;7.57;;;1.70;;
22064;SDS011;11197;53.110;8.468;2022-12-07T05:55:44;7.35;;;1.40;;
22064;SDS011;11197;53.110;8.468;2022-12-07T05:58:10;7.28;;;1.50;;
22064;SDS011;11197;53.110;8.468;2022-12-07T06:00:54;6.13;;;1.40;;
22064;SDS011;11197;53.110;8.468;2022-12-07T06:03:21;9.15;;;1.40;;
22064;SDS011;11197;53.110;8.468;2022-12-07T06:05:47;7.65;;;1.50;;
22064;SDS011;11197;53.110;8.468;2022-12-07T06:08:14;6.15;;;1.33;;
22064;SDS011;11197;53.110;8.468;2022-12-07T06:10:40;10.38;;;1.67;;
22064;SDS011;11197;53.110;8.468;2022-12-07T06:13:07;5.70;;;1.30;;
22064;SDS011;11197;53.110;8.468;2022-12-07T06:15:37;8.13;;;1.33;;
22064;SDS011;11197;53.110;8.468;2022-12-07T06:18:03;9.82;;;1.50;;
22064;SDS011;11197;53.110;8.468;2022-12-07T06:20:29;5.15;;;1.20;;
22064;SDS011;11197;53.110;8.468;2022-12-07T06:22:55;7.30;;;1.50;;
22064;SDS011;11197;53.110;8.468;2022-12-07T06:25:21;7.97;;;1.50;;
22064;SDS011;11197;53.110;8.468;2022-12-07T06:27:47;7.43;;;1.50;;
22064;SDS011;11197;53.110;8.468;2022-12-07T06:30:13;4.05;;;1.30;;
22064;SDS011;11197;53.110;8.468;2022-12-07T06:32:39;5.57;;;1.25;;
22064;SDS011;11197;53.110;8.468;2022-12-07T06:35:05;9.73;;;1.50;;
22064;SDS011;11197;53.110;8.468;2022-12-07T06:37:31;7.78;;;1.40;;
22064;SDS011;11197;53.110;8.468;2022-12-07T06:39:57;10.88;;;1.23;;
22064;SDS011;11197;53.110;8.468;2022-12-07T06:42:23;5.13;;;1.30;;
22064;SDS011;11197;53.110;8.468;2022-12-07T06:44:49;7.35;;;1.17;;
22064;SDS011;11197;53.110;8.468;2022-12-07T06:47:16;7.68;;;1.17;;
22064;SDS011;11197;53.110;8.468;2022-12-07T06:49:42;6.70;;;1.30;;
22064;SDS011;11197;53.110;8.468;2022-12-07T06:52:08;6.03;;;1.23;;
22064;SDS011;11197;53.110;8.468;2022-12-07T06:54:35;2.72;;;1.25;;
22064;SDS011;11197;53.110;8.468;2022-12-07T06:57:01;7.28;;;1.60;;
22064;SDS011;11197;53.110;8.468;2022-12-07T06:59:27;6.22;;;1.30;;
22064;SDS011;11197;53.110;8.468;2022-12-07T07:01:53;5.03;;;1.05;;
22064;SDS011;11197;53.110;8.468;2022-12-07T07:04:20;6.30;;;1.45;;
22064;SDS011;11197;53.110;8.468;2022-12-07T07:06:46;3.90;;;1.35;;
22064;SDS011;11197;53.110;8.468;2022-12-07T07:09:12;6.93;;;1.38;;
22064;SDS011;11197;53.110;8.468;2022-12-07T07:11:38;8.25;;;1.80;;
22064;SDS011;11197;53.110;8.468;2022-12-07T07:14:04;14.68;;;4.93;;
22064;SDS011;11197;53.110;8.468;2022-12-07T07:16:30;9.68;;;3.55;;
22064;SDS011;11197;53.110;8.468;2022-12-07T07:18:56;16.65;;;5.43;;
22064;SDS011;11197;53.110;8.468;2022-12-07T07:21:22;9.57;;;4.47;;
22064;SDS011;11197;53.110;8.468;2022-12-07T07:23:48;7.20;;;2.65;;
22064;SDS011;11197;53.110;8.468;2022-12-07T07:26:14;6.78;;;1.88;;
22064;SDS011;11197;53.110;8.468;2022-12-07T07:28:40;8.05;;;3.33;;
22064;SDS011;11197;53.110;8.468;2022-12-07T07:31:06;6.93;;;3.70;;
22064;SDS011;11197;53.110;8.468;2022-12-07T07:33:32;7.20;;;3.85;;
22064;SDS011;11197;53.110;8.468;2022-12-07T07:35:58;9.23;;;3.20;;
22064;SDS011;11197;53.110;8.468;2022-12-07T07:38:24;3.72;;;2.40;;
22064;SDS011;11197;53.110;8.468;2022-12-07T07:40:50;5.10;;;3.65;;
22064;SDS011;11197;53.110;8.468;2022-12-07T07:43:16;5.90;;;1.95;;
22064;SDS011;11197;53.110;8.468;2022-12-07T07:45:42;3.40;;;1.80;;
22064;SDS011;11197;53.110;8.468;2022-12-07T07:48:11;4.43;;;1.60;;
22064;SDS011;11197;53.110;8.468;2022-12-07T07:50:36;4.32;;;1.20;;
22064;SDS011;11197;53.110;8.468;2022-12-07T07:53:02;3.10;;;1.30;;
22064;SDS011;11197;53.110;8.468;2022-12-07T07:55:28;4.43;;;1.15;;
22064;SDS011;11197;53.110;8.468;2022-12-07T07:57:54;5.80;;;1.55;;
22064;SDS011;11197;53.110;8.468;2022-12-07T08:00:21;7.10;;;1.80;;
22064;SDS011;11197;53.110;8.468;2022-12-07T08:02:47;4.90;;;1.30;;
22064;SDS011;11197;53.110;8.468;2022-12-07T08:05:14;4.68;;;1.40;;
22064;SDS011;11197;53.110;8.468;2022-12-07T08:07:40;4.53;;;1.10;;
22064;SDS011;11197;53.110;8.468;2022-12-07T08:10:07;6.63;;;1.50;;
22064;SDS011;11197;53.110;8.468;2022-12-07T08:12:36;5.72;;;1.10;;
22064;SDS011;11197;53.110;8.468;2022-12-07T08:15:23;3.03;;;1.15;;
22064;SDS011;11197;53.110;8.468;2022-12-07T08:17:50;4.95;;;1.33;;
22064;SDS011;11197;53.110;8.468;2022-12-07T08:20:16;5.20;;;1.40;;
22064;SDS011;11197;53.110;8.468;2022-12-07T08:22:42;5.72;;;1.30;;
22064;SDS011;11197;53.110;8.468;2022-12-07T08:25:08;3.72;;;1.17;;
22064;SDS011;11197;53.110;8.468;2022-12-07T08:27:34;7.20;;;1.38;;
22064;SDS011;11197;53.110;8.468;2022-12-07T08:30:00;7.18;;;1.73;;
22064;SDS011;11197;53.110;8.468;2022-12-07T08:32:26;6.75;;;1.85;;
22064;SDS011;11197;53.110;8.468;2022-12-07T08:34:55;5.38;;;1.50;;
22064;SDS011;11197;53.110;8.468;2022-12-07T08:37:21;5.97;;;1.20;;
22064;SDS011;11197;53.110;8.468;2022-12-07T08:39:47;5.60;;;1.42;;
22064;SDS011;11197;53.110;8.468;2022-12-07T08:42:13;5.05;;;1.60;;
22064;SDS011;11197;53.110;8.468;2022-12-07T08:44:39;5.50;;;1.83;;
22064;SDS011;11197;53.110;8.468;2022-12-07T08:47:05;8.20;;;1.92;;
22064;SDS011;11197;53.110;8.468;2022-12-07T08:49:37;4.43;;;1.85;;
22064;SDS011;11197;53.110;8.468;2022-12-07T08:52:06;5.88;;;1.65;;
22064;SDS011;11197;53.110;8.468;2022-12-07T08:54:33;5.75;;;2.00;;
22064;SDS011;11197;53.110;8.468;2022-12-07T08:57:01;6.32;;;1.80;;
22064;SDS011;11197;53.110;8.468;2022-12-07T08:59:28;6.13;;;1.83;;
22064;SDS011;11197;53.110;8.468;2022-12-07T09:01:54;7.97;;;1.67;;
22064;SDS011;11197;53.110;8.468;2022-12-07T09:04:20;6.20;;;1.98;;
22064;SDS011;11197;53.110;8.468;2022-12-07T09:06:46;5.78;;;1.90;;
22064;SDS011;11197;53.110;8.468;2022-12-07T09:09:13;6.32;;;1.95;;
22064;SDS011;11197;53.110;8.468;2022-12-07T09:11:40;6.45;;;2.45;;
22064;SDS011;11197;53.110;8.468;2022-12-07T09:14:06;7.32;;;2.25;;
22064;SDS011;11197;53.110;8.468;2022-12-07T09:16:32;8.93;;;2.55;;
22064;SDS011;11197;53.110;8.468;2022-12-07T09:18:58;5.25;;;1.58;;
22064;SDS011;11197;53.110;8.468;2022-12-07T09:21:24;8.20;;;2.20;;
22064;SDS011;11197;53.110;8.468;2022-12-07T09:23:50;6.00;;;1.45;;
22064;SDS011;11197;53.110;8.468;2022-12-07T09:26:19;5.22;;;1.63;;
22064;SDS011;11197;53.110;8.468;2022-12-07T09:28:45;8.27;;;1.95;;
22064;SDS011;11197;53.110;8.468;2022-12-07T09:31:10;7.38;;;2.03;;
22064;SDS011;11197;53.110;8.468;2022-12-07T09:33:36;8.70;;;2.28;;
22064;SDS011;11197;53.110;8.468;2022-12-07T09:36:02;5.13;;;1.90;;
22064;SDS011;11197;53.110;8.468;2022-12-07T09:38:29;4.38;;;1.92;;
22064;SDS011;11197;53.110;8.468;2022-12-07T09:40:57;7.43;;;2.22;;
22064;SDS011;11197;53.110;8.468;2022-12-07T09:43:33;4.72;;;1.98;;
22064;SDS011;11197;53.110;8.468;2022-12-07T09:46:01;5.72;;;2.30;;
22064;SDS011;11197;53.110;8.468;2022-12-07T09:48:30;6.40;;;2.20;;
22064;SDS011;11197;53.110;8.468;2022-12-07T09:51:02;6.05;;;2.03;;
22064;SDS011;11197;53.110;8.468;2022-12-07T09:53:36;6.47;;;2.30;;
22064;SDS011;11197;53.110;8.468;2022-12-07T09:56:03;7.32;;;2.30;;
22064;SDS011;11197;53.110;8.468;2022-12-07T09:58:30;8.20;;;1.90;;
22064;SDS011;11197;53.110;8.468;2022-12-07T10:01:08;9.50;;;2.20;;
22064;SDS011;11197;53.110;8.468;2022-12-07T10:03:52;7.70;;;2.00;;
22064;SDS011;11197;53.110;8.468;2022-12-07T10:06:21;9.02;;;2.10;;
22064;SDS011;11197;53.110;8.468;2022-12-07T10:08:47;6.18;;;1.95;;
22064;SDS011;11197;53.110;8.468;2022-12-07T10:11:13;6.13;;;2.08;;
22064;SDS011;11197;53.110;8.468;2022-12-07T10:13:48;9.02;;;1.90;;
22064;SDS011;11197;53.110;8.468;2022-12-07T10:21:59;7.15;;;2.00;;
22064;SDS011;11197;53.110;8.468;2022-12-07T10:24:30;6.88;;;1.90;;
22064;SDS011;11197;53.110;8.468;2022-12-07T10:26:56;6.80;;;1.77;;
22064;SDS011;11197;53.110;8.468;2022-12-07T10:29:34;8.30;;;2.35;;
22064;SDS011;11197;53.110;8.468;2022-12-07T10:32:45;7.28;;;1.95;;
22064;SDS011;11197;53.110;8.468;2022-12-07T10:34:52;9.27;;;2.10;;
22064;SDS011;11197;53.110;8.468;2022-12-07T10:37:44;9.93;;;1.80;;
22064;SDS011;11197;53.110;8.468;2022-12-07T10:43:03;4.70;;;1.80;;
22064;SDS011;11197;53.110;8.468;2022-12-07T11:02:32;8.60;;;1.90;;
22064;SDS011;11197;53.110;8.468;2022-12-07T11:10:38;6.50;;;2.17;;
22064;SDS011;11197;53.110;8.468;2022-12-07T11:24:16;10.43;;;2.10;;
22064;SDS011;11197;53.110;8.468;2022-12-07T11:29:55;10.90;;;1.70;;
22064;SDS011;11197;53.110;8.468;2022-12-07T11:32:49;8.25;;;1.60;;
22064;SDS011;11197;53.110;8.468;2022-12-07T11:38:28;6.47;;;1.45;;
22064;SDS011;11197;53.110;8.468;2022-12-07T11:41:17;9.02;;;1.60;;
22064;SDS011;11197;53.110;8.468;2022-12-07T11:52:22;4.50;;;1.20;;
22064;SDS011;11197;53.110;8.468;2022-12-07T11:55:16;6.45;;;1.50;;
22064;SDS011;11197;53.110;8.468;2022-12-07T11:58:10;9.75;;;1.80;;
22064;SDS011;11197;53.110;8.468;2022-12-07T12:01:04;5.25;;;1.30;;
22064;SDS011;11197;53.110;8.468;2022-12-07T12:03:45;7.38;;;1.70;;
22064;SDS011;11197;53.110;8.468;2022-12-07T12:06:16;10.88;;;1.95;;
22064;SDS011;11197;53.110;8.468;2022-12-07T12:23:11;9.73;;;2.00;;
22064;SDS011;11197;53.110;8.468;2022-12-07T12:28:18;10.85;;;1.80;;
22064;SDS011;11197;53.110;8.468;2022-12-07T12:31:04;9.83;;;2.13;;
22064;SDS011;11197;53.110;8.468;2022-12-07T12:33:32;9.95;;;2.10;;
22064;SDS011;11197;53.110;8.468;2022-12-07T12:47:02;10.48;;;2.03;;
22064;SDS011;11197;53.110;8.468;2022-12-07T12:54:58;8.55;;;2.40;;
22064;SDS011;11197;53.110;8.468;2022-12-07T12:57:29;11.75;;;3.00;;
22064;SDS011;11197;53.110;8.468;2022-12-07T13:10:40;16.55;;;4.35;;
22064;SDS011;11197;53.110;8.468;2022-12-07T13:23:23;17.77;;;3.88;;
22064;SDS011;11197;53.110;8.468;2022-12-07T13:28:48;9.50;;;1.33;;
22064;SDS011;11197;53.110;8.468;2022-12-07T13:31:34;7.03;;;1.30;;
22064;SDS011;11197;53.110;8.468;2022-12-07T13:37:09;5.70;;;1.35;;
22064;SDS011;11197;53.110;8.468;2022-12-07T13:39:47;7.13;;;1.50;;
22064;SDS011;11197;53.110;8.468;2022-12-07T13:44:54;6.68;;;1.70;;
22064;SDS011;11197;53.110;8.468;2022-12-07T13:50:00;4.22;;;0.90;;
22064;SDS011;11197;53.110;8.468;2022-12-07T13:54:57;5.60;;;1.40;;
22064;SDS011;11197;53.110;8.468;2022-12-07T13:57:24;9.50;;;2.30;;
22064;SDS011;11197;53.110;8.468;2022-12-07T13:59:52;6.57;;;1.60;;
22064;SDS011;11197;53.110;8.468;2022-12-07T14:02:20;4.03;;;1.30;;
22064;SDS011;11197;53.110;8.468;2022-12-07T14:05:07;6.70;;;1.40;;
22064;SDS011;11197;53.110;8.468;2022-12-07T14:07:54;5.65;;;1.20;;
22064;SDS011;11197;53.110;8.468;2022-12-07T14:10:32;5.82;;;1.23;;
22064;SDS011;11197;53.110;8.468;2022-12-07T14:13:21;5.70;;;1.20;;
22064;SDS011;11197;53.110;8.468;2022-12-07T14:18:43;3.22;;;1.00;;
22064;SDS011;11197;53.110;8.468;2022-12-07T14:23:35;4.25;;;1.00;;
22064;SDS011;11197;53.110;8.468;2022-12-07T14:26:07;4.90;;;0.88;;
22064;SDS011;11197;53.110;8.468;2022-12-07T14:28:42;2.53;;;0.95;;
22064;SDS011;11197;53.110;8.468;2022-12-07T14:31:12;4.00;;;1.27;;
22064;SDS011;11197;53.110;8.468;2022-12-07T14:33:43;4.95;;;1.20;;
22064;SDS011;11197;53.110;8.468;2022-12-07T14:36:09;5.30;;;1.50;;
22064;SDS011;11197;53.110;8.468;2022-12-07T14:38:37;5.70;;;1.60;;
22064;SDS011;11197;53.110;8.468;2022-12-07T14:41:03;4.82;;;1.52;;
22064;SDS011;11197;53.110;8.468;2022-12-07T14:43:49;5.13;;;1.30;;
22064;SDS011;11197;53.110;8.468;2022-12-07T14:46:15;3.05;;;1.10;;
22064;SDS011;11197;53.110;8.468;2022-12-07T14:48:41;4.35;;;1.20;;
22064;SDS011;11197;53.110;8.468;2022-12-07T14:51:08;5.00;;;1.05;;
22064;SDS011;11197;53.110;8.468;2022-12-07T14:53:39;8.33;;;1.20;;
22064;SDS011;11197;53.110;8.468;2022-12-07T14:56:09;6.50;;;0.93;;
22064;SDS011;11197;53.110;8.468;2022-12-07T14:58:34;3.67;;;1.10;;
22064;SDS011;11197;53.110;8.468;2022-12-07T15:01:00;5.20;;;1.02;;
22064;SDS011;11197;53.110;8.468;2022-12-07T15:03:26;6.55;;;1.15;;
22064;SDS011;11197;53.110;8.468;2022-12-07T15:05:53;3.13;;;1.00;;
22064;SDS011;11197;53.110;8.468;2022-12-07T15:08:19;4.22;;;1.35;;
22064;SDS011;11197;53.110;8.468;2022-12-07T15:10:44;5.60;;;1.80;;
22064;SDS011;11197;53.110;8.468;2022-12-07T15:13:11;5.25;;;1.73;;
22064;SDS011;11197;53.110;8.468;2022-12-07T15:15:55;3.70;;;1.55;;
22064;SDS011;11197;53.110;8.468;2022-12-07T15:18:22;7.00;;;2.20;;
22064;SDS011;11197;53.110;8.468;2022-12-07T15:20:49;8.02;;;2.15;;
22064;SDS011;11197;53.110;8.468;2022-12-07T15:23:16;8.55;;;2.00;;
22064;SDS011;11197;53.110;8.468;2022-12-07T15:25:43;7.35;;;1.70;;
22064;SDS011;11197;53.110;8.468;2022-12-07T15:28:10;8.30;;;2.40;;
22064;SDS011;11197;53.110;8.468;2022-12-07T15:30:37;6.32;;;2.40;;
22064;SDS011;11197;53.110;8.468;2022-12-07T15:33:03;6.95;;;2.65;;
22064;SDS011;11197;53.110;8.468;2022-12-07T15:35:29;8.02;;;4.32;;
22064;SDS011;11197;53.110;8.468;2022-12-07T15:37:55;7.45;;;3.40;;
22064;SDS011;11197;53.110;8.468;2022-12-07T15:40:21;5.65;;;2.65;;
22064;SDS011;11197;53.110;8.468;2022-12-07T15:42:47;7.25;;;3.13;;
22064;SDS011;11197;53.110;8.468;2022-12-07T15:45:13;5.88;;;2.47;;
22064;SDS011;11197;53.110;8.468;2022-12-07T15:47:43;7.20;;;2.40;;
22064;SDS011;11197;53.110;8.468;2022-12-07T15:50:14;6.43;;;2.33;;
22064;SDS011;11197;53.110;8.468;2022-12-07T15:52:41;10.77;;;2.55;;
22064;SDS011;11197;53.110;8.468;2022-12-07T15:55:08;7.20;;;2.15;;
22064;SDS011;11197;53.110;8.468;2022-12-07T15:57:36;7.47;;;2.22;;
22064;SDS011;11197;53.110;8.468;2022-12-07T16:00:07;6.38;;;2.90;;
22064;SDS011;11197;53.110;8.468;2022-12-07T16:02:36;9.48;;;4.32;;
22064;SDS011;11197;53.110;8.468;2022-12-07T16:05:02;10.52;;;3.67;;
22064;SDS011;11197;53.110;8.468;2022-12-07T16:07:28;9.73;;;5.20;;
22064;SDS011;11197;53.110;8.468;2022-12-07T16:09:54;10.85;;;5.43;;
22064;SDS011;11197;53.110;8.468;2022-12-07T16:12:20;20.83;;;12.43;;
22064;SDS011;11197;53.110;8.468;2022-12-07T16:14:46;13.27;;;7.22;;
22064;SDS011;11197;53.110;8.468;2022-12-07T16:17:12;12.25;;;4.75;;
22064;SDS011;11197;53.110;8.468;2022-12-07T16:19:38;9.30;;;4.82;;
22064;SDS011;11197;53.110;8.468;2022-12-07T16:22:04;11.10;;;3.85;;
22064;SDS011;11197;53.110;8.468;2022-12-07T16:24:30;9.40;;;3.67;;
22064;SDS011;11197;53.110;8.468;2022-12-07T16:26:57;11.60;;;3.70;;
22064;SDS011;11197;53.110;8.468;2022-12-07T16:29:24;9.27;;;3.60;;
22064;SDS011;11197;53.110;8.468;2022-12-07T16:31:50;7.18;;;3.10;;
22064;SDS011;11197;53.110;8.468;2022-12-07T16:34:17;6.60;;;2.30;;
22064;SDS011;11197;53.110;8.468;2022-12-07T16:36:44;6.22;;;2.40;;
22064;SDS011;11197;53.110;8.468;2022-12-07T16:39:10;7.38;;;2.60;;
22064;SDS011;11197;53.110;8.468;2022-12-07T16:41:37;6.80;;;2.53;;
22064;SDS011;11197;53.110;8.468;2022-12-07T16:44:05;10.52;;;2.83;;
22064;SDS011;11197;53.110;8.468;2022-12-07T16:46:32;7.80;;;2.47;;
22064;SDS011;11197;53.110;8.468;2022-12-07T16:49:00;8.50;;;3.60;;
22064;SDS011;11197;53.110;8.468;2022-12-07T16:51:28;10.18;;;4.65;;
22064;SDS011;11197;53.110;8.468;2022-12-07T16:53:54;9.07;;;3.45;;
22064;SDS011;11197;53.110;8.468;2022-12-07T16:56:20;9.38;;;3.03;;
22064;SDS011;11197;53.110;8.468;2022-12-07T16:58:46;9.55;;;2.90;;
22064;SDS011;11197;53.110;8.468;2022-12-07T17:01:15;8.88;;;2.42;;
22064;SDS011;11197;53.110;8.468;2022-12-07T17:03:44;4.82;;;2.22;;
22064;SDS011;11197;53.110;8.468;2022-12-07T17:06:14;5.82;;;2.00;;
22064;SDS011;11197;53.110;8.468;2022-12-07T17:08:41;5.73;;;2.17;;
22064;SDS011;11197;53.110;8.468;2022-12-07T17:11:14;6.35;;;2.40;;
22064;SDS011;11197;53.110;8.468;2022-12-07T17:13:42;4.97;;;2.40;;
22064;SDS011;11197;53.110;8.468;2022-12-07T17:16:27;4.38;;;2.88;;
22064;SDS011;11197;53.110;8.468;2022-12-07T17:18:54;5.43;;;2.70;;
22064;SDS011;11197;53.110;8.468;2022-12-07T17:21:20;4.30;;;2.67;;
22064;SDS011;11197;53.110;8.468;2022-12-07T17:23:47;4.68;;;2.35;;
22064;SDS011;11197;53.110;8.468;2022-12-07T17:26:16;5.82;;;2.55;;
22064;SDS011;11197;53.110;8.468;2022-12-07T17:28:44;5.07;;;2.55;;
22064;SDS011;11197;53.110;8.468;2022-12-07T17:31:11;4.30;;;2.47;;
22064;SDS011;11197;53.110;8.468;2022-12-07T17:33:38;4.60;;;2.40;;
22064;SDS011;11197;53.110;8.468;2022-12-07T17:36:15;5.28;;;2.53;;
22064;SDS011;11197;53.110;8.468;2022-12-07T17:38:46;5.90;;;2.55;;
22064;SDS011;11197;53.110;8.468;2022-12-07T17:41:20;4.25;;;2.28;;